Time;durP1;ratioP1;P1;durP2;ratioP2;P2;SDS_P1;SDS_P2;PMS_P1;PMS_P2;Temp;Humidity;BMP_temperature;BMP_pressure;BME280_temperature;BME280_humidity;BME280_pressure;Samples;Min_cycle;Max_cycle;Signal;HPM_P1;HPM_P2
2024/03/22 00:01:43;;;;;;;12.27;6.38;;;;;;;6.50;100.00;99493.19;5024545;28;20030;-80
2024/03/22 00:04:08;;;;;;;15.05;6.95;;;;;;;6.70;100.00;99536.81;5024916;28;20026;-80
2024/03/22 00:06:34;;;;;;;13.13;7.22;;;;;;;6.29;100.00;99481.00;5024203;28;20093;-79
2024/03/22 00:08:59;;;;;;;10.98;6.18;;;;;;;6.54;100.00;99534.88;5023103;28;20404;-79
2024/03/22 00:11:24;;;;;;;10.18;5.63;;;;;;;6.42;100.00;99528.06;5023117;28;20037;-79
2024/03/22 00:13:51;;;;;;;10.63;5.45;;;;;;;6.15;100.00;99506.56;5027844;28;20022;-79
2024/03/22 00:16:16;;;;;;;9.55;5.50;;;;;;;6.46;100.00;99540.19;5028334;28;20202;-79
2024/03/22 00:18:41;;;;;;;11.70;5.78;;;;;;;6.04;100.00;99492.56;5020114;28;20237;-79
2024/03/22 00:21:07;;;;;;;8.98;4.88;;;;;;;5.92;100.00;99481.19;5022124;28;20249;-79
2024/03/22 00:23:32;;;;;;;8.90;4.82;;;;;;;6.21;100.00;99534.69;5025158;28;20067;-79
2024/03/22 00:25:57;;;;;;;9.95;4.93;;;;;;;5.82;100.00;99477.78;5023837;28;20025;-79
2024/03/22 00:28:22;;;;;;;14.82;5.65;;;;;;;5.86;100.00;99471.09;5018666;28;20217;-79
2024/03/22 00:30:48;;;;;;;8.63;5.30;;;;;;;6.14;100.00;99512.13;5023059;28;20258;-79
2024/03/22 00:33:13;;;;;;;10.52;5.82;;;;;;;6.03;100.00;99496.28;5020252;28;20033;-79
2024/03/22 00:35:38;;;;;;;10.13;6.18;;;;;;;6.25;100.00;99533.34;5024740;28;20029;-79
2024/03/22 00:38:04;;;;;;;15.35;6.65;;;;;;;5.75;100.00;99460.63;5021488;28;20026;-79
2024/03/22 00:40:29;;;;;;;10.18;5.57;;;;;;;6.15;100.00;99522.69;5024738;28;20021;-79
2024/03/22 00:42:54;;;;;;;12.60;5.75;;;;;;;5.61;100.00;99436.00;5018463;28;20128;-79
2024/03/22 00:45:20;;;;;;;11.13;5.53;;;;;;;6.05;100.00;99510.38;5021071;28;20067;-79
2024/03/22 00:47:45;;;;;;;11.43;5.20;;;;;;;6.00;100.00;99493.88;5021180;28;20032;-79
2024/03/22 00:50:10;;;;;;;9.27;5.72;;;;;;;5.98;100.00;99490.53;5025030;28;20025;-79
2024/03/22 00:52:36;;;;;;;10.75;5.55;;;;;;;5.90;100.00;99496.66;5022591;28;20022;-79
2024/03/22 00:55:01;;;;;;;7.72;5.13;;;;;;;5.80;100.00;99501.25;5020864;28;20317;-79
2024/03/22 00:57:26;;;;;;;10.90;4.95;;;;;;;5.71;100.00;99498.50;5022389;28;20025;-79
2024/03/22 00:59:52;;;;;;;9.30;4.70;;;;;;;5.63;100.00;99481.47;5019825;28;20026;-79
2024/03/22 01:02:17;;;;;;;10.30;4.80;;;;;;;5.62;100.00;99483.31;5022453;28;20026;-79
2024/03/22 01:04:42;;;;;;;10.38;5.10;;;;;;;5.70;100.00;99483.38;5019815;28;20052;-79
2024/03/22 01:07:07;;;;;;;9.02;4.25;;;;;;;5.60;100.00;99476.41;5022474;28;20336;-79
2024/03/22 01:09:33;;;;;;;9.25;4.22;;;;;;;5.55;100.00;99481.41;5019297;28;20049;-79
2024/03/22 01:11:58;;;;;;;14.50;5.38;;;;;;;5.53;100.00;99464.59;5022480;28;20029;-79
2024/03/22 01:14:23;;;;;;;9.07;5.40;;;;;;;5.46;100.00;99467.91;5021952;28;20057;-79
2024/03/22 01:16:48;;;;;;;9.88;5.40;;;;;;;5.34;100.00;99441.47;5018659;28;20030;-79
2024/03/22 01:19:14;;;;;;;10.02;5.80;;;;;;;5.38;100.00;99454.44;5025321;28;20061;-79
2024/03/22 01:21:39;;;;;;;10.57;5.95;;;;;;;5.28;100.00;99429.53;5021214;28;20073;-79
2024/03/22 01:24:04;;;;;;;12.52;6.80;;;;;;;5.42;100.00;99469.25;5022237;28;20030;-79
2024/03/22 01:26:30;;;;;;;13.30;6.65;;;;;;;5.25;100.00;99464.72;5018605;28;20121;-79
2024/03/22 01:28:55;;;;;;;12.05;6.50;;;;;;;5.18;100.00;99455.59;5021978;28;20194;-79
2024/03/22 01:31:20;;;;;;;11.32;5.88;;;;;;;5.18;100.00;99447.53;5019266;28;20281;-79
2024/03/22 01:33:45;;;;;;;12.68;6.15;;;;;;;5.21;100.00;99464.19;5020192;28;20025;-79
2024/03/22 01:36:11;;;;;;;15.23;6.43;;;;;;;5.01;100.00;99447.38;5012974;28;20025;-79
2024/03/22 01:38:36;;;;;;;13.52;6.57;;;;;;;4.99;100.00;99462.78;5017705;28;20026;-79
2024/03/22 01:41:01;;;;;;;11.80;6.88;;;;;;;4.96;100.00;99459.56;5022866;28;20032;-78
2024/03/22 01:43:27;;;;;;;12.25;6.57;;;;;;;4.87;100.00;99442.53;5022930;28;20017;-79
2024/03/22 01:45:52;;;;;;;13.25;6.72;;;;;;;4.89;100.00;99440.53;5013364;28;20190;-79
2024/03/22 01:48:17;;;;;;;12.63;6.88;;;;;;;5.01;100.00;99457.28;5022256;28;20026;-79
2024/03/22 01:50:43;;;;;;;12.63;6.63;;;;;;;4.97;100.00;99453.19;5021250;28;20025;-79
2024/03/22 01:53:08;;;;;;;11.00;6.20;;;;;;;4.98;100.00;99452.22;5020587;28;20028;-79
2024/03/22 01:55:34;;;;;;;10.43;5.93;;;;;;;4.98;100.00;99457.56;5018089;28;20026;-79
2024/03/22 01:57:59;;;;;;;12.63;6.30;;;;;;;4.78;100.00;99413.94;5015822;28;20041;-79
2024/03/22 02:00:24;;;;;;;12.32;6.25;;;;;;;4.88;100.00;99441.53;5019175;28;20017;-79
2024/03/22 02:02:50;;;;;;;15.82;6.32;;;;;;;4.84;100.00;99434.78;5024725;28;20029;-79
2024/03/22 02:05:19;;;;;;;14.77;6.18;;;;;;;4.92;100.00;99448.28;5017421;28;20025;-79
2024/03/22 02:07:45;;;;;;;12.77;6.05;;;;;;;4.98;100.00;99447.69;5020965;28;20366;-79
2024/03/22 02:10:10;;;;;;;11.05;5.70;;;;;;;4.78;100.00;99425.50;5014280;28;20037;-79
2024/03/22 02:12:37;;;;;;;12.30;6.30;;;;;;;4.82;100.00;99439.44;5014383;28;20272;-79
2024/03/22 02:15:02;;;;;;;14.52;5.90;;;;;;;4.77;100.00;99423.84;5020452;28;20033;-79
2024/03/22 02:17:28;;;;;;;9.63;5.78;;;;;;;4.89;100.00;99440.53;5021231;28;20248;-79
2024/03/22 02:19:53;;;;;;;13.05;5.40;;;;;;;4.75;100.00;99422.31;5020184;28;20026;-79
2024/03/22 02:22:19;;;;;;;12.88;6.28;;;;;;;4.75;100.00;99433.84;5019931;28;20030;-79
2024/03/22 02:24:44;;;;;;;8.98;5.30;;;;;;;4.64;100.00;99418.00;5020046;28;20076;-79
2024/03/22 02:27:09;;;;;;;11.95;5.35;;;;;;;4.61;100.00;99413.78;5024712;28;20159;-79
2024/03/22 02:29:34;;;;;;;12.52;5.70;;;;;;;4.59;100.00;99422.97;5022101;28;20321;-79
2024/03/22 02:32:00;;;;;;;8.40;5.05;;;;;;;4.41;100.00;99390.75;5016424;28;20030;-79
2024/03/22 02:34:25;;;;;;;8.38;4.88;;;;;;;4.61;100.00;99427.19;5016861;28;20253;-79
2024/03/22 02:36:50;;;;;;;8.43;4.75;;;;;;;4.52;100.00;99416.50;5018777;28;20065;-79
2024/03/22 02:39:15;;;;;;;8.38;4.63;;;;;;;4.53;100.00;99405.66;5023559;28;20057;-79
2024/03/22 02:41:41;;;;;;;8.93;4.85;;;;;;;4.41;100.00;99396.13;5021804;28;20248;-79
2024/03/22 02:44:06;;;;;;;7.60;4.40;;;;;;;4.48;100.00;99391.84;5015615;28;20025;-79
2024/03/22 02:46:32;;;;;;;9.88;4.70;;;;;;;4.52;100.00;99409.31;5022437;28;20260;-78
2024/03/22 02:48:57;;;;;;;9.07;4.45;;;;;;;4.25;100.00;99369.97;5021856;28;20150;-79
2024/03/22 02:51:22;;;;;;;10.43;4.45;;;;;;;4.37;100.00;99390.19;5023849;28;20025;-79
2024/03/22 02:53:47;;;;;;;12.30;5.20;;;;;;;4.28;100.00;99385.75;5020736;28;20068;-79
2024/03/22 02:56:13;;;;;;;9.40;5.38;;;;;;;4.27;100.00;99393.91;5015880;28;20251;-79
2024/03/22 02:58:38;;;;;;;10.00;5.72;;;;;;;4.14;100.00;99373.69;5017954;28;20037;-79
2024/03/22 03:01:03;;;;;;;12.50;6.10;;;;;;;4.08;100.00;99368.91;5015276;28;20038;-79
2024/03/22 03:03:29;;;;;;;13.65;5.95;;;;;;;4.11;100.00;99376.69;5021244;28;20053;-79
2024/03/22 03:05:54;;;;;;;12.00;6.45;;;;;;;4.31;100.00;99398.84;5019568;28;20077;-79
2024/03/22 03:08:19;;;;;;;10.63;6.93;;;;;;;4.25;100.00;99386.06;5012541;28;20030;-79
2024/03/22 03:10:45;;;;;;;12.82;7.20;;;;;;;4.27;100.00;99388.56;5025949;28;20038;-79
2024/03/22 03:13:11;;;;;;;13.30;6.53;;;;;;;4.28;100.00;99385.75;5019482;28;20025;-79
2024/03/22 03:15:36;;;;;;;17.02;7.05;;;;;;;4.34;100.00;99384.31;5016761;28;20209;-79
2024/03/22 03:18:01;;;;;;;12.57;6.20;;;;;;;4.28;100.00;99374.19;5020221;28;20034;-79
2024/03/22 03:20:26;;;;;;;12.30;6.75;;;;;;;4.35;100.00;99391.38;5031386;28;20041;-79
2024/03/22 03:22:52;;;;;;;14.93;7.25;;;;;;;4.29;100.00;99387.44;5015570;28;20036;-79
2024/03/22 03:25:17;;;;;;;12.45;6.95;;;;;;;4.08;100.00;99368.09;5016781;28;20101;-79
2024/03/22 03:27:42;;;;;;;15.40;7.00;;;;;;;4.18;100.00;99395.66;5016039;28;20096;-79
2024/03/22 03:30:08;;;;;;;14.07;7.07;;;;;;;4.14;100.00;99389.78;5021686;28;20037;-79
2024/03/22 03:32:33;;;;;;;12.27;6.97;;;;;;;4.22;100.00;99396.19;5017579;28;20018;-79
2024/03/22 03:34:58;;;;;;;13.20;7.13;;;;;;;4.06;100.00;99380.78;5031513;28;20061;-82
2024/03/22 03:37:24;;;;;;;12.13;6.43;;;;;;;4.12;100.00;99386.38;5025441;28;20034;-82
2024/03/22 03:39:49;;;;;;;16.33;7.47;;;;;;;4.15;100.00;99396.81;5017740;28;20033;-82
2024/03/22 03:42:14;;;;;;;9.60;6.32;;;;;;;4.20;100.00;99392.84;5021144;28;20076;-81
2024/03/22 03:44:41;;;;;;;12.55;6.53;;;;;;;3.88;100.00;99337.91;5018431;28;20026;-81
2024/03/22 03:47:06;;;;;;;10.65;6.47;;;;;;;4.11;100.00;99368.66;5021445;28;20022;-81
2024/03/22 03:49:32;;;;;;;11.57;5.82;;;;;;;4.12;100.00;99374.84;5023949;28;20034;-81
2024/03/22 03:51:57;;;;;;;10.15;6.07;;;;;;;4.03;100.00;99357.81;5022667;28;20087;-81
2024/03/22 03:54:22;;;;;;;9.85;6.00;;;;;;;4.16;100.00;99379.72;5020034;28;20030;-81
2024/03/22 03:56:48;;;;;;;14.35;5.57;;;;;;;4.22;100.00;99381.00;5017827;28;20033;-81
2024/03/22 03:59:13;;;;;;;8.85;5.13;;;;;;;3.93;100.00;99324.91;5027243;28;20030;-80
2024/03/22 04:01:38;;;;;;;11.02;5.85;;;;;;;4.12;100.00;99358.78;5023223;28;20049;-80
2024/03/22 04:04:04;;;;;;;9.60;5.28;;;;;;;4.32;100.00;99371.09;5027924;28;20097;-80
2024/03/22 04:06:30;;;;;;;8.63;5.22;;;;;;;4.31;100.00;99357.81;5020253;28;20290;-80
2024/03/22 04:08:55;;;;;;;10.27;5.38;;;;;;;4.03;100.00;99319.50;5022089;28;20025;-80
2024/03/22 04:11:20;;;;;;;10.75;5.50;;;;;;;4.40;100.00;99356.91;5016505;28;20040;-80
2024/03/22 04:14:11;;;;;;;9.00;5.20;;;;;;;4.38;100.00;99356.25;5024795;28;20049;-80
2024/03/22 04:19:18;;;;;;;9.98;5.40;;;;;;;4.63;100.00;99377.94;5040561;28;20501;-62
2024/03/22 04:21:43;;;;;;;8.43;4.50;;;;;;;4.71;100.00;99376.19;5035686;28;20075;-63
2024/03/22 04:24:09;;;;;;;12.25;4.65;;;;;;;4.74;100.00;99364.31;5036417;28;20032;-62
2024/03/22 04:26:34;;;;;;;10.00;5.13;;;;;;;4.84;100.00;99373.13;5032647;28;20038;-61
2024/03/22 04:28:59;;;;;;;7.43;4.50;;;;;;;4.92;100.00;99375.88;5031853;28;20044;-62
2024/03/22 04:31:25;;;;;;;9.35;4.85;;;;;;;4.91;100.00;99363.47;5053383;28;20044;-62
2024/03/22 04:33:50;;;;;;;8.82;4.68;;;;;;;4.98;100.00;99367.25;5050382;28;20078;-61
2024/03/22 04:36:16;;;;;;;8.88;4.95;;;;;;;5.11;100.00;99376.72;5054464;28;20035;-61
2024/03/22 04:38:41;;;;;;;9.68;4.68;;;;;;;5.15;100.00;99368.22;5052865;28;20017;-61
2024/03/22 04:41:06;;;;;;;10.63;4.90;;;;;;;5.21;100.00;99372.13;5053287;28;20099;-61
2024/03/22 04:43:32;;;;;;;10.82;5.53;;;;;;;5.30;100.00;99373.88;5050255;28;20446;-61
2024/03/22 04:45:57;;;;;;;8.18;5.18;;;;;;;5.32;100.00;99374.56;5052628;28;20104;-61
2024/03/22 04:48:23;;;;;;;9.48;5.07;;;;;;;5.31;100.00;99361.31;5054406;28;20059;-63
2024/03/22 04:50:52;;;;;;;7.32;4.35;;;;;;;5.33;100.00;99370.88;5058031;28;20100;-62
2024/03/22 04:53:23;;;;;;;7.13;4.78;;;;;;;5.33;100.00;99378.94;5043972;28;20053;-62
2024/03/22 04:55:49;;;;;;;12.18;5.00;;;;;;;5.40;100.00;99368.44;5047206;28;20053;-62
2024/03/22 04:58:17;;;;;;;11.07;5.30;;;;;;;5.45;100.00;99368.81;5048204;28;20465;-64
2024/03/22 05:01:14;;;;;;;10.68;6.05;;;;;;;5.56;100.00;99363.16;5046840;28;20452;-67
2024/03/22 05:03:41;;;;;;;10.75;5.85;;;;;;;5.44;100.00;99362.56;5051334;28;20420;-62
2024/03/22 05:06:06;;;;;;;9.52;5.60;;;;;;;5.46;100.00;99365.09;5047755;28;20115;-62
2024/03/22 05:08:32;;;;;;;12.30;6.78;;;;;;;5.38;100.00;99367.75;5052241;28;20021;-62
2024/03/22 05:10:59;;;;;;;10.38;5.60;;;;;;;5.44;100.00;99377.84;5049977;28;20376;-62
2024/03/22 05:13:24;;;;;;;10.68;6.28;;;;;;;5.43;100.00;99363.59;5052072;28;20040;-63
2024/03/22 05:15:49;;;;;;;10.65;5.63;;;;;;;5.39;100.00;99359.50;5049460;28;20397;-62
2024/03/22 05:18:15;;;;;;;13.30;5.60;;;;;;;5.45;100.00;99360.75;5047642;28;20120;-62
2024/03/22 05:20:40;;;;;;;10.52;6.70;;;;;;;5.39;100.00;99359.50;5054672;28;20040;-63
2024/03/22 05:23:06;;;;;;;11.60;5.65;;;;;;;5.39;100.00;99359.50;5054537;28;20029;-61
2024/03/22 05:25:31;;;;;;;9.88;5.97;;;;;;;5.33;100.00;99360.16;5058373;28;20033;-62
2024/03/22 05:27:57;;;;;;;10.13;5.88;;;;;;;5.37;100.00;99350.81;5053345;28;20078;-62
2024/03/22 05:30:22;;;;;;;12.02;6.55;;;;;;;5.36;100.00;99349.09;5047802;28;20036;-62
2024/03/22 05:32:49;;;;;;;11.02;6.18;;;;;;;5.38;100.00;99346.28;5051420;28;20487;-62
2024/03/22 05:35:14;;;;;;;11.57;6.43;;;;;;;5.48;100.00;99342.47;5031968;28;20032;-62
2024/03/22 05:37:40;;;;;;;9.98;5.65;;;;;;;5.53;100.00;99336.66;5052216;28;20025;-62
2024/03/22 05:40:06;;;;;;;15.90;5.93;;;;;;;5.64;100.00;99340.91;5052569;28;20108;-62
2024/03/22 05:42:32;;;;;;;11.65;6.15;;;;;;;5.78;100.00;99337.63;5049742;28;20071;-63
2024/03/22 05:44:57;;;;;;;19.10;6.03;;;;;;;5.80;100.00;99324.88;5050570;28;20029;-63
2024/03/22 05:47:23;;;;;;;15.95;6.15;;;;;;;5.92;100.00;99328.13;5045462;28;20488;-62
2024/03/22 05:49:48;;;;;;;12.77;5.85;;;;;;;6.02;100.00;99325.34;5102362;23;20029;-60
2024/03/22 05:52:13;;;;;;;11.82;6.18;;;;;;;6.13;100.00;99320.53;5023898;28;20113;-62
2024/03/22 05:54:39;;;;;;;10.38;5.78;;;;;;;6.25;100.00;99313.00;5031180;28;20022;-58
2024/03/22 05:57:07;;;;;;;7.63;4.90;;;;;;;6.47;100.00;99299.97;5045537;28;20357;-58
2024/03/22 05:59:33;;;;;;;12.07;5.72;;;;;;;6.51;100.00;99302.16;5041690;28;20074;-58
2024/03/22 06:02:00;;;;;;;13.48;5.10;;;;;;;6.67;100.00;99305.88;5048253;28;20427;-58
2024/03/22 06:04:25;;;;;;;10.88;6.00;;;;;;;6.87;100.00;99312.63;5052845;28;20048;-58
2024/03/22 06:06:50;;;;;;;8.43;5.28;;;;;;;6.92;100.00;99301.38;5047281;28;20507;-58
2024/03/22 06:09:23;;;;;;;10.18;5.28;;;;;;;6.90;100.00;99301.53;5047463;28;20025;-59
2024/03/22 06:11:50;;;;;;;12.23;4.80;;;;;;;6.98;100.00;99303.41;5047800;28;20029;-59
2024/03/22 06:14:15;;;;;;;12.65;5.40;;;;;;;6.99;100.00;99305.91;5051408;28;20079;-58
2024/03/22 06:16:41;;;;;;;10.68;5.13;;;;;;;7.19;100.00;99309.09;5047499;28;20672;-58
2024/03/22 06:19:06;;;;;;;8.02;5.22;;;;;;;7.28;100.00;99304.53;5046191;28;20123;-58
2024/03/22 06:21:32;;;;;;;9.52;4.95;;;;;;;7.50;100.00;99307.56;5032839;28;20063;-58
2024/03/22 06:23:57;;;;;;;9.05;5.32;;;;;;;7.80;100.00;99292.50;5050375;28;20074;-58
2024/03/22 06:26:22;;;;;;;9.55;4.95;;;;;;;8.72;100.00;99292.72;5030196;28;20481;-58
2024/03/22 06:28:48;;;;;;;7.43;4.60;;;;;;;10.61;100.00;99273.47;5044663;28;20025;-58
2024/03/22 06:31:14;;;;;;;6.13;4.22;;;;;;;12.06;100.00;99267.50;5049465;28;20408;-59
2024/03/22 06:33:39;;;;;;;12.02;5.00;;;;;;;12.88;100.00;99268.38;5053714;28;20364;-59
2024/03/22 06:36:05;;;;;;;12.80;4.85;;;;;;;13.23;100.00;99251.91;5049424;28;20385;-59
2024/03/22 06:38:30;;;;;;;13.30;5.00;;;;;;;14.97;100.00;99250.25;5051803;28;20492;-59
2024/03/22 06:40:56;;;;;;;6.95;4.55;;;;;;;16.16;100.00;99250.97;5048738;28;20059;-58
2024/03/22 06:43:21;;;;;;;7.20;4.32;;;;;;;17.08;100.00;99252.66;5048029;28;20116;-59
2024/03/22 06:45:47;;;;;;;10.13;5.18;;;;;;;18.23;87.26;99247.66;5048791;28;20016;-58
2024/03/22 06:48:14;;;;;;;7.18;3.97;;;;;;;18.33;82.72;99250.63;5049237;28;20456;-59
2024/03/22 06:50:41;;;;;;;6.05;4.22;;;;;;;17.92;82.10;99249.75;5039249;28;20070;-57
2024/03/22 06:53:06;;;;;;;10.40;3.88;;;;;;;18.90;79.88;99252.56;5043371;28;20044;-58
2024/03/22 06:55:32;;;;;;;6.43;3.90;;;;;;;19.64;75.22;99242.25;5040380;28;20053;-58
2024/03/22 06:57:57;;;;;;;9.27;3.90;;;;;;;20.27;68.50;99237.34;5039553;28;20036;-59
2024/03/22 07:00:22;;;;;;;9.02;4.82;;;;;;;21.82;62.69;99241.31;5051737;28;20090;-59
2024/03/22 07:02:48;;;;;;;9.48;4.78;;;;;;;23.10;59.33;99238.19;5049047;28;20378;-59
2024/03/22 07:05:15;;;;;;;8.30;4.82;;;;;;;24.41;55.71;99232.69;5052287;28;20090;-59
2024/03/22 07:07:41;;;;;;;6.85;5.40;;;;;;;24.78;52.98;99233.34;5045431;28;20032;-59
2024/03/22 07:10:07;;;;;;;8.45;5.30;;;;;;;23.85;53.56;99235.69;5043514;28;20022;-59
2024/03/22 07:12:33;;;;;;;8.85;4.75;;;;;;;24.92;51.22;99232.44;5031106;28;20021;-59
2024/03/22 07:15:02;;;;;;;9.98;5.50;;;;;;;24.64;50.95;99222.94;5050958;28;20032;-59
2024/03/22 07:17:28;;;;;;;7.72;5.30;;;;;;;25.25;48.48;99220.88;5052266;28;20085;-59
2024/03/22 07:20:00;;;;;;;14.73;4.93;;;;;;;24.36;49.76;99212.53;5051736;28;20029;-59
2024/03/22 07:22:25;;;;;;;8.75;5.10;;;;;;;22.88;52.02;99222.69;5049393;28;20017;-59
2024/03/22 07:24:51;;;;;;;13.02;5.53;;;;;;;22.58;53.98;99220.69;5029980;28;20031;-60
2024/03/22 07:27:16;;;;;;;9.02;5.30;;;;;;;23.13;53.32;99215.56;5044512;28;20029;-59
2024/03/22 07:29:44;;;;;;;11.57;5.32;;;;;;;24.27;51.87;99213.13;5047802;28;20048;-59
2024/03/22 07:32:10;;;;;;;9.90;5.38;;;;;;;24.62;51.01;99208.53;5046978;28;20063;-60
2024/03/22 07:34:36;;;;;;;14.77;5.53;;;;;;;25.47;50.26;99212.09;5025774;28;20057;-59
2024/03/22 07:37:01;;;;;;;8.60;5.28;;;;;;;26.96;47.24;99205.53;5050823;28;20071;-60
2024/03/22 07:39:27;;;;;;;8.02;4.75;;;;;;;27.35;46.64;99194.09;5056632;28;20031;-59
2024/03/22 07:41:52;;;;;;;9.48;4.60;;;;;;;28.91;46.08;99195.09;5048488;28;20032;-60
2024/03/22 07:44:19;;;;;;;7.45;5.35;;;;;;;28.50;44.73;99187.69;5055128;28;20053;-60
2024/03/22 07:46:45;;;;;;;9.00;4.90;;;;;;;29.27;43.74;99194.25;5046907;28;20025;-59
2024/03/22 07:49:12;;;;;;;8.00;5.18;;;;;;;30.12;41.65;99197.78;5049845;28;20024;-64
2024/03/22 07:51:37;;;;;;;10.05;6.15;;;;;;;29.99;41.39;99195.94;5051508;28;20029;-64
2024/03/22 07:54:03;;;;;;;8.88;5.50;;;;;;;29.05;41.87;99204.22;5051068;28;20025;-63
2024/03/22 07:56:30;;;;;;;9.02;5.25;;;;;;;28.44;43.25;99194.50;5053222;28;20029;-63
2024/03/22 07:58:55;;;;;;;8.88;5.38;;;;;;;27.46;44.17;99205.88;5053326;28;20448;-64
2024/03/22 08:01:21;;;;;;;8.73;5.80;;;;;;;28.04;44.01;99205.34;5053665;28;20059;-63
2024/03/22 08:03:46;;;;;;;7.38;5.85;;;;;;;25.20;47.23;99210.66;5050562;28;20029;-64
2024/03/22 08:06:12;;;;;;;8.30;5.45;;;;;;;23.60;49.93;99215.25;5050725;28;20048;-64
2024/03/22 08:08:37;;;;;;;9.27;5.75;;;;;;;23.31;50.39;99209.47;5044044;28;20017;-64
2024/03/22 08:11:03;;;;;;;10.15;6.28;;;;;;;22.86;51.59;99208.34;5051898;28;20079;-64
2024/03/22 08:13:28;;;;;;;12.77;6.93;;;;;;;21.23;55.56;99205.63;5053321;28;20021;-63
2024/03/22 08:15:53;;;;;;;9.43;6.13;;;;;;;19.69;61.94;99208.59;5032076;28;20035;-63
2024/03/22 08:18:19;;;;;;;9.15;5.90;;;;;;;19.55;64.54;99204.53;5052846;28;20017;-63
2024/03/22 08:20:44;;;;;;;11.13;6.28;;;;;;;20.53;63.73;99218.41;5051450;28;20025;-64
2024/03/22 08:23:10;;;;;;;10.00;6.57;;;;;;;20.16;63.16;99201.78;5059237;28;20020;-63
2024/03/22 08:25:36;;;;;;;16.00;6.60;;;;;;;19.89;63.78;99197.06;5055082;28;20032;-64
2024/03/22 08:28:02;;;;;;;8.73;5.90;;;;;;;20.02;66.02;99190.38;5053224;28;20484;-64
2024/03/22 08:30:28;;;;;;;10.23;6.38;;;;;;;19.98;65.71;99180.97;5053250;28;20031;-68
2024/03/22 08:32:53;;;;;;;12.10;6.95;;;;;;;20.50;64.99;99196.97;5050761;28;20021;-68
2024/03/22 08:35:18;;;;;;;14.55;6.97;;;;;;;21.26;63.04;99190.50;5047211;28;20025;-64
2024/03/22 08:37:44;;;;;;;10.05;6.13;;;;;;;20.71;63.33;99192.53;5052318;28;20083;-63
2024/03/22 08:40:10;;;;;;;8.50;5.70;;;;;;;21.24;61.14;99182.50;5053914;28;20035;-63
2024/03/22 08:42:36;;;;;;;11.13;5.95;;;;;;;20.98;61.95;99175.97;5051869;28;20032;-63
2024/03/22 08:45:04;;;;;;;9.30;6.07;;;;;;;20.39;64.00;99185.03;5055313;28;20059;-63
2024/03/22 08:47:29;;;;;;;8.85;5.30;;;;;;;20.43;64.50;99188.91;5047513;28;20056;-63
2024/03/22 08:49:56;;;;;;;11.13;6.07;;;;;;;20.51;64.09;99179.38;5059949;28;20104;-64
2024/03/22 08:52:23;;;;;;;8.52;5.55;;;;;;;20.09;66.62;99178.06;5050575;28;20108;-64
2024/03/22 08:54:50;;;;;;;10.27;6.07;;;;;;;20.05;66.58;99171.44;5054037;28;20029;-63
2024/03/22 08:57:15;;;;;;;7.78;5.30;;;;;;;20.73;64.60;99160.09;5053106;28;20027;-63
2024/03/22 08:59:41;;;;;;;9.10;5.65;;;;;;;21.39;62.71;99162.56;5059570;28;20017;-63
2024/03/22 09:02:07;;;;;;;11.43;5.80;;;;;;;21.40;62.77;99164.22;5034896;28;20484;-58
2024/03/22 09:04:34;;;;;;;8.90;5.40;;;;;;;23.02;58.65;99155.94;5049857;28;20021;-58
2024/03/22 09:06:59;;;;;;;9.98;6.22;;;;;;;23.47;57.25;99145.94;5048670;28;20029;-59
2024/03/22 09:09:25;;;;;;;8.25;5.20;;;;;;;24.28;54.12;99153.13;5052140;28;20032;-59
2024/03/22 09:11:50;;;;;;;9.15;6.18;;;;;;;24.62;52.99;99155.16;5053894;28;20021;-58
2024/03/22 09:14:17;;;;;;;12.50;6.05;;;;;;;24.64;53.84;99158.47;5047482;28;20164;-59
2024/03/22 09:16:42;;;;;;;8.35;5.78;;;;;;;25.46;52.38;99147.53;5048664;28;20025;-59
2024/03/22 09:19:08;;;;;;;10.32;5.68;;;;;;;26.16;50.04;99148.97;5031801;28;20391;-59
2024/03/22 09:21:33;;;;;;;10.48;5.57;;;;;;;25.62;50.12;99150.13;5053482;28;20445;-59
2024/03/22 09:23:59;;;;;;;8.27;5.35;;;;;;;25.62;50.40;99141.81;5048688;28;20043;-58
2024/03/22 09:26:24;;;;;;;7.18;5.15;;;;;;;25.44;49.58;99144.25;5053672;28;20070;-59
2024/03/22 09:28:50;;;;;;;10.55;5.50;;;;;;;24.92;50.86;99143.88;5049451;28;20029;-59
2024/03/22 09:31:16;;;;;;;9.63;5.47;;;;;;;25.61;49.90;99138.22;5053247;28;20111;-59
2024/03/22 09:33:43;;;;;;;8.88;5.90;;;;;;;24.66;50.61;99128.59;5047987;28;20048;-59
2024/03/22 09:36:09;;;;;;;9.18;5.32;;;;;;;24.46;50.66;99132.31;5044443;28;20036;-58
2024/03/22 09:38:34;;;;;;;9.32;5.43;;;;;;;23.86;52.12;99128.72;5046600;28;20017;-58
2024/03/22 09:41:00;;;;;;;11.50;5.65;;;;;;;24.90;50.45;99128.66;5052016;28;20021;-63
2024/03/22 09:43:28;;;;;;;9.50;6.20;;;;;;;23.35;52.89;99115.91;5060675;28;20032;-63
2024/03/22 09:45:55;;;;;;;8.33;4.90;;;;;;;23.67;53.03;99115.50;5056020;28;20088;-59
2024/03/22 09:48:23;;;;;;;8.93;5.60;;;;;;;23.12;53.89;99101.56;5048711;28;20294;-59
2024/03/22 09:50:49;;;;;;;9.57;5.60;;;;;;;22.72;55.09;99106.00;5046387;28;20468;-58
2024/03/22 09:53:20;;;;;;;10.55;5.55;;;;;;;23.79;55.32;99099.47;5050385;28;20043;-58
2024/03/22 09:55:47;;;;;;;10.63;5.80;;;;;;;22.70;55.12;99090.81;5053036;28;20025;-58
2024/03/22 09:58:13;;;;;;;9.43;5.28;;;;;;;21.81;57.21;99090.91;5050383;28;20029;-58
2024/03/22 10:00:38;;;;;;;11.57;5.93;;;;;;;21.08;58.80;99093.53;5046497;28;20491;-58
2024/03/22 10:03:04;;;;;;;9.23;5.53;;;;;;;20.91;59.76;99095.63;5040355;28;20443;-57
2024/03/22 10:05:31;;;;;;;12.30;5.25;;;;;;;20.68;60.35;99081.16;5031582;28;20017;-58
2024/03/22 10:07:57;;;;;;;9.27;5.50;;;;;;;21.67;59.35;99071.31;5046388;28;20481;-58
2024/03/22 10:10:23;;;;;;;9.80;5.60;;;;;;;22.37;58.34;99070.94;5049963;28;20114;-58
2024/03/22 10:12:48;;;;;;;9.40;5.50;;;;;;;23.17;57.36;99071.19;5049762;28;20404;-58
2024/03/22 10:15:14;;;;;;;11.02;5.90;;;;;;;23.58;55.55;99062.78;5048519;28;20062;-58
2024/03/22 10:17:40;;;;;;;8.30;5.88;;;;;;;23.93;54.19;99065.69;5050138;28;20033;-58
2024/03/22 10:20:13;;;;;;;12.25;6.00;;;;;;;23.66;55.02;99069.69;5050979;28;20031;-63
2024/03/22 10:22:48;;;;;;;9.38;5.25;;;;;;;24.69;53.24;99059.66;5050768;28;20029;-64
2024/03/22 10:25:13;;;;;;;8.35;5.20;;;;;;;25.20;51.94;99061.13;5043984;28;20055;-65
2024/03/22 10:27:40;;;;;;;12.20;5.22;;;;;;;25.08;51.94;99055.16;5044985;28;20060;-63
2024/03/22 10:30:09;;;;;;;7.93;4.97;;;;;;;25.40;52.72;99049.00;5049844;28;20043;-63
2024/03/22 10:32:38;;;;;;;9.68;5.03;;;;;;;25.15;50.65;99047.28;5031294;28;20414;-63
2024/03/22 10:35:07;;;;;;;7.95;5.28;;;;;;;24.35;51.29;99045.78;5049190;28;20025;-64
2024/03/22 10:37:33;;;;;;;8.00;5.65;;;;;;;23.38;53.35;99033.31;5027774;28;20061;-65
2024/03/22 10:40:07;;;;;;;8.93;5.07;;;;;;;25.34;51.97;99028.03;5045940;28;20024;-63
2024/03/22 10:42:32;;;;;;;7.30;5.00;;;;;;;25.90;50.11;99029.25;5031722;28;20495;-60
2024/03/22 10:44:58;;;;;;;6.93;4.63;;;;;;;24.44;51.49;99019.22;5045664;28;20059;-59
2024/03/22 10:47:29;;;;;;;9.75;5.10;;;;;;;24.96;51.12;99016.78;5043646;28;20020;-58
2024/03/22 10:50:05;;;;;;;11.23;5.22;;;;;;;25.49;50.73;99008.44;5053366;28;20020;-59
2024/03/22 10:52:41;;;;;;;10.40;4.70;;;;;;;24.97;50.90;98996.28;5050222;28;20063;-58
2024/03/22 10:55:12;;;;;;;4.78;3.47;;;;;;;27.59;48.50;98996.59;5042595;28;20469;-59
2024/03/22 10:57:38;;;;;;;5.95;4.35;;;;;;;28.73;45.53;98981.69;5044957;28;20039;-59
2024/03/22 11:00:15;;;;;;;10.40;4.05;;;;;;;28.77;45.41;98985.47;5049742;28;20052;-59
2024/03/22 11:02:43;;;;;;;9.75;4.82;;;;;;;29.68;43.75;98976.50;5044598;28;20108;-57
2024/03/22 11:05:16;;;;;;;9.50;4.10;;;;;;;28.09;44.01;98984.66;5047183;28;20031;-66
2024/03/22 11:07:43;;;;;;;7.50;3.95;;;;;;;26.53;45.29;98969.78;5045356;28;20480;-68
2024/03/22 11:10:11;;;;;;;5.07;4.00;;;;;;;26.18;46.07;98970.06;5047740;28;20421;-60
2024/03/22 11:12:37;;;;;;;4.70;3.47;;;;;;;27.76;46.86;98977.31;5044233;28;20033;-60
2024/03/22 11:15:03;;;;;;;6.70;3.67;;;;;;;28.62;46.51;98956.88;5054000;28;20090;-60
2024/03/22 11:17:29;;;;;;;6.45;3.63;;;;;;;28.21;42.47;98964.63;5051943;28;20476;-60
2024/03/22 11:19:54;;;;;;;5.10;3.00;;;;;;;29.12;42.89;98953.06;5052284;28;20472;-61
2024/03/22 11:22:20;;;;;;;5.07;2.50;;;;;;;30.40;41.28;98945.50;5046487;28;20024;-60
2024/03/22 11:24:45;;;;;;;6.40;3.33;;;;;;;29.00;43.51;98953.66;5051814;28;20101;-60
2024/03/22 11:27:11;;;;;;;4.63;2.90;;;;;;;28.52;39.98;98950.78;5051441;28;20480;-60